Latest Weather Observations for Low Head

IDT60801

Issued at 11:35 pm EST Thursday 21 August 2014 (issued every 30 minutes, with the page automatically refreshed every 10 minutes)

About weather observations | Map of weather stations | Latest weather observations for TAS | Other Formats
Station Details ID: 091293 Name: LOW HEAD Lat: -41.05 Lon: 146.79 Height: 3.0 m
Data from the previous 72 hours. | See also: Recent months at Low Head
Date/Time
EST
Temp
°C
App
Temp
°C
Dew
Point
Rel
Hum
%
Delta-T
°C
Wind Press
QNH
hPa
Press
MSL
hPa
Rain
since 9 am
mm
Dir
 
Spd
km/h
Gust
km/h
Spd
kts
Gust
kts
21/11:30pm 9.8 6.4 7.7 87 1.0 E 15 20 8 11 1033.2 - 0.0
21/11:00pm 9.7 5.3 7.4 85 1.1 E 20 24 11 13 1033.1 - 0.0
21/10:30pm 10.1 5.7 7.6 84 1.2 E 20 26 11 14 1033.0 - 0.0
21/10:00pm 10.1 5.7 7.3 83 1.3 E 20 24 11 13 1033.0 - 0.0
21/09:30pm 10.5 6.8 7.8 83 1.3 E 17 22 9 12 1032.9 - 0.0
21/09:00pm 11.1 6.8 7.8 80 1.6 E 20 26 11 14 1032.8 1032.8 0.0
21/08:30pm 11.7 6.3 8.2 79 1.7 ENE 26 30 14 16 1032.6 - 0.0
21/08:00pm 12.1 6.8 8.6 79 1.7 ENE 26 30 14 16 1032.5 - 0.0
21/07:30pm 12.5 7.0 9.1 80 1.7 ENE 28 32 15 17 1032.3 - 0.0
21/07:00pm 12.5 7.0 9.3 81 1.6 ENE 28 35 15 19 1032.1 - 0.0
21/06:30pm 12.4 7.7 9.2 81 1.6 ENE 24 28 13 15 1031.9 - 0.0
21/06:00pm 12.8 7.7 9.2 79 1.8 ENE 26 30 14 16 1031.7 1031.7 0.0
21/05:30pm 12.8 8.1 9.2 79 1.8 NE 24 28 13 15 1031.4 - 0.0
21/05:00pm 13.1 8.4 9.1 77 2.0 NE 24 28 13 15 1031.1 - 0.0
21/04:30pm 13.2 8.9 9.2 77 2.0 ENE 22 26 12 14 1030.9 - 0.0
21/04:00pm 13.4 8.5 8.6 73 2.4 NE 24 28 13 15 1030.9 - 0.0
21/03:30pm 13.7 8.9 8.9 73 2.4 NE 24 28 13 15 1030.7 - 0.0
21/03:00pm 14.0 9.2 9.0 72 2.5 NE 24 28 13 15 1030.8 1030.8 0.0
21/02:30pm 14.0 9.2 8.8 71 2.6 NE 24 28 13 15 1030.9 - 0.0
21/02:00pm 13.9 9.3 8.2 68 2.8 NE 22 24 12 13 1031.0 - 0.0
21/01:30pm 14.2 9.8 7.4 63 3.3 NE 20 24 11 13 1031.2 - 0.0
21/01:00pm 13.4 11.3 5.9 60 3.5 ESE 6 13 3 7 1031.6 - 0.0
21/12:30pm 12.7 8.5 5.8 63 3.2 S 17 20 9 11 1031.7 - 0.0
21/12:00pm 12.0 7.0 4.7 61 3.3 S 20 26 11 14 1032.1 1032.1 0.0
21/11:30am 11.7 6.4 4.8 62 3.1 S 22 26 12 14 1032.3 - 0.0
21/11:00am 11.2 5.9 5.0 65 2.8 SSE 22 28 12 15 1032.4 - 0.0
21/10:30am 10.2 4.4 4.3 67 2.6 S 24 32 13 17 1032.6 - 0.0
21/10:00am 8.9 2.3 4.0 71 2.1 S 28 33 15 18 1032.6 - 0.0
21/09:30am 8.1 1.5 4.1 76 1.7 S 28 33 15 18 1032.6 - 0.0
21/09:00am 7.6 0.6 4.3 79 1.4 S 30 35 16 19 1032.6 1032.6 0.0
21/08:30am 7.1 0.1 4.3 82 1.2 S 30 33 16 18 1032.4 - 0.0
21/08:00am 6.5 0.3 4.4 86 0.9 SSE 26 32 14 17 1032.2 - 0.0
21/07:30am 6.6 0.1 4.5 86 0.9 S 28 32 15 17 1031.8 - 0.0
21/07:00am 6.4 0.6 4.3 86 0.9 SSE 24 32 13 17 1031.6 - 0.0
21/06:30am 6.6 0.8 4.5 86 0.9 SSE 24 32 13 17 1031.1 - 0.0
21/06:00am 6.9 1.2 4.8 86 0.9 SSE 24 28 13 15 1031.0 1031.0 0.0
21/05:30am 6.7 1.3 4.6 86 0.9 SSE 22 28 12 15 1030.9 - 0.0
21/05:00am 6.5 1.1 4.6 88 0.8 SSE 22 26 12 14 1030.7 - 0.0
21/04:30am 6.7 1.7 4.8 88 0.8 SSE 20 24 11 13 1030.6 - 0.0
21/04:00am 6.7 1.4 4.8 88 0.8 S 22 26 12 14 1030.4 - 0.0
21/03:30am 7.0 2.1 5.2 88 0.8 SSE 20 24 11 13 1030.2 - 0.0
21/03:00am 7.3 2.7 5.5 88 0.8 SSE 19 22 10 12 1030.2 1030.2 0.0
21/02:30am 7.4 3.1 5.4 87 0.9 SSE 17 20 9 11 1030.2 - 0.0
21/02:00am 7.5 3.3 5.5 87 0.9 SSE 17 20 9 11 1030.2 - 0.0
21/01:30am 8.0 4.3 6.2 88 0.8 SSE 15 17 8 9 1030.2 - 0.0
21/01:00am 7.9 4.1 5.9 87 0.9 SSE 15 15 8 8 1030.2 - 0.0
21/12:30am 8.0 4.6 5.8 86 1.0 SSE 13 15 7 8 1030.2 - 0.0
21/12:00am 8.3 5.0 6.3 87 0.9 SSE 13 15 7 8 1030.2 1030.2 0.0
 
Date/Time
EST
Temp
°C
App
Temp
°C
Dew
Point
Rel
Hum
%
Delta-T
°C
Wind Press
QNH
hPa
Press
MSL
hPa
Rain
since 9 am
mm
Dir
 
Spd
km/h
Gust
km/h
Spd
kts
Gust
kts
20/11:30pm 8.2 5.3 6.4 88 0.8 SSE 11 13 6 7 1030.1 - 0.0
20/11:00pm 8.2 5.3 6.4 88 0.8 SE 11 15 6 8 1030.0 - 0.0
20/10:30pm 7.9 4.5 6.1 88 0.8 SSE 13 17 7 9 1030.0 - 0.0
20/10:00pm 8.1 4.7 5.9 86 1.0 SSE 13 15 7 8 1029.9 - 0.0
20/09:30pm 8.6 5.7 6.6 87 0.9 SSE 11 13 6 7 1029.8 - 0.0
20/09:00pm 9.1 6.5 6.0 81 1.4 ESE 9 13 5 7 1029.5 1029.5 0.0
20/08:30pm 8.8 6.2 5.9 82 1.3 SSE 9 11 5 6 1029.3 - 0.0
20/08:00pm 9.1 6.5 6.0 81 1.4 E 9 11 5 6 1028.9 - 0.0
20/07:30pm 9.3 8.1 6.5 83 1.3 SSE 2 6 1 3 1028.7 - 0.0
20/07:00pm 10.0 9.2 6.3 78 1.7 CALM 0 0 0 0 1028.3 - 0.0
20/06:30pm 11.3 9.5 7.1 75 2.0 NNE 6 7 3 4 1027.9 - 0.0
20/06:00pm 11.6 9.2 7.0 73 2.2 NNE 9 9 5 5 1027.5 1027.5 0.0
20/05:30pm 11.9 9.1 6.8 71 2.4 NNE 11 13 6 7 1027.1 - 0.0
20/05:00pm 12.1 9.0 7.1 71 2.4 NNE 13 17 7 9 1026.8 - 0.0
20/04:30pm 12.5 9.5 7.5 71 2.4 NNE 13 15 7 8 1026.6 - 0.0
20/04:00pm 12.6 9.4 6.9 68 2.7 NNE 13 15 7 8 1026.4 - 0.0
20/03:30pm 12.5 9.3 6.8 68 2.7 NNE 13 15 7 8 1026.4 - 0.0
20/03:00pm 12.2 9.1 7.4 72 2.3 NNE 13 13 7 7 1026.2 1026.2 0.0
20/02:30pm 12.6 10.4 7.7 72 2.4 NNE 9 11 5 6 1026.1 - 0.0
20/02:00pm 12.4 9.7 7.4 71 2.4 NNE 11 11 6 6 1025.9 - 0.0
20/01:30pm 12.1 10.0 6.8 70 2.5 NNE 7 11 4 6 1025.8 - 0.0
20/01:00pm 12.2 10.1 6.7 69 2.6 NNE 7 9 4 5 1026.1 - 0.0
20/12:30pm 12.3 10.0 5.6 63 3.1 NNE 7 9 4 5 1026.1 - 0.0
20/12:00pm 12.3 7.7 3.7 55 3.8 S 17 19 9 10 1026.2 1026.2 0.0
20/11:30am 11.8 6.8 3.6 57 3.6 S 19 20 10 11 1026.4 - 0.0
20/11:00am 11.0 5.9 2.9 57 3.5 S 19 22 10 12 1026.5 - 0.0
20/10:30am 9.9 4.6 2.9 62 3.0 SSE 20 26 11 14 1026.4 - 0.0
20/10:00am 8.9 2.8 2.7 65 2.6 SSE 24 30 13 16 1026.4 - 0.0
20/09:30am 8.6 2.1 2.9 67 2.4 S 26 32 14 17 1026.2 - 0.0
20/09:00am 7.7 2.5 3.4 74 1.8 SSE 20 26 11 14 1026.0 1026.0 0.0
20/08:30am 7.0 1.7 3.2 77 1.6 SSE 20 28 11 15 1025.7 - 0.0
20/08:00am 6.5 1.5 3.4 80 1.3 S 19 24 10 13 1025.4 - 0.0
20/07:30am 5.9 1.2 3.2 83 1.1 SSE 17 24 9 13 1025.0 - 0.0
20/07:00am 5.7 0.3 2.5 80 1.3 SSE 20 26 11 14 1024.5 - 0.0
20/06:30am 5.6 0.4 2.6 81 1.2 SSE 19 24 10 13 1024.2 - 0.0
20/06:00am 5.9 0.9 3.5 84 1.0 SSE 19 28 10 15 1024.1 1024.1 0.0
20/05:30am 6.1 1.2 4.0 86 0.9 S 19 24 10 13 1024.0 - 0.0
20/05:00am 5.6 0.6 3.7 87 0.8 SSE 19 22 10 12 1023.8 - 0.0
20/04:30am 5.8 0.6 3.6 86 0.9 SSE 20 28 11 15 1023.6 - 0.0
20/04:00am 6.3 1.8 4.2 86 0.9 S 17 20 9 11 1023.6 - 0.0
20/03:30am 6.1 1.6 4.0 86 0.9 SSE 17 22 9 12 1023.7 - 0.0
20/03:00am 6.2 2.6 4.8 91 0.6 S 13 19 7 10 1023.6 1023.6 0.0
20/02:30am 6.1 2.8 4.7 91 0.6 S 11 15 6 8 1023.6 - 0.0
20/02:00am 5.3 1.9 3.9 91 0.6 SSE 11 13 6 7 1023.7 - 0.0
20/01:30am 5.5 1.7 4.1 91 0.6 SSE 13 17 7 9 1023.8 - 0.0
20/01:00am 5.7 1.9 4.0 89 0.7 SE 13 17 7 9 1023.6 - 0.0
20/12:30am 5.7 2.0 4.3 91 0.6 SSE 13 19 7 10 1023.7 - 0.0
20/12:00am 6.0 2.7 4.6 91 0.6 SE 11 15 6 8 1023.7 1023.7 0.0
 
Date/Time
EST
Temp
°C
App
Temp
°C
Dew
Point
Rel
Hum
%
Delta-T
°C
Wind Press
QNH
hPa
Press
MSL
hPa
Rain
since 9 am
mm
Dir
 
Spd
km/h
Gust
km/h
Spd
kts
Gust
kts
19/11:30pm 7.2 3.0 5.6 89 0.7 S 17 20 9 11 1023.6 - 0.0
19/11:00pm 6.3 2.3 4.7 89 0.7 SSE 15 19 8 10 1023.5 - 0.0
19/10:30pm 6.2 2.1 4.3 88 0.8 SSE 15 17 8 9 1023.6 - 0.0
19/10:00pm 6.5 2.5 5.1 91 0.6 SSE 15 19 8 10 1023.6 - 0.0
19/09:30pm 6.9 3.0 5.3 89 0.7 S 15 19 8 10 1023.4 - 0.0
19/09:00pm 7.7 3.9 5.9 88 0.8 S 15 19 8 10 1023.3 1023.3 0.0
19/08:30pm 7.3 3.8 5.3 87 0.9 S 13 15 7 8 1023.2 - 0.0
19/08:00pm 7.8 4.3 5.3 84 1.1 SSE 13 15 7 8 1023.1 - 0.0
19/07:30pm 9.4 8.1 5.9 79 1.6 E 2 9 1 5 1023.0 - 0.0
19/07:00pm 10.5 9.7 6.7 77 1.8 CALM 0 6 0 3 1022.8 - 0.0
19/06:30pm 10.9 8.3 5.9 71 2.3 NW 9 11 5 6 1022.6 - 0.0
19/06:00pm 11.1 7.3 5.9 70 2.4 WNW 15 17 8 9 1022.5 1022.5 0.0
19/05:30pm 11.2 7.0 5.5 68 2.6 WNW 17 19 9 10 1022.4 - 0.0
19/05:00pm 11.9 7.3 5.6 65 2.9 WNW 19 20 10 11 1022.2 - 0.0
19/04:30pm 12.1 7.5 5.4 63 3.1 WNW 19 20 10 11 1022.2 - 0.0
19/04:00pm 12.2 7.3 5.0 61 3.3 WNW 20 22 11 12 1022.3 - 0.0
19/03:30pm 12.4 7.4 4.7 59 3.5 NW 20 22 11 12 1022.4 - 0.0
19/03:00pm 12.3 7.2 4.0 57 3.7 NW 20 24 11 13 1022.4 1022.4 0.0
19/02:30pm 12.3 6.6 2.9 52 4.1 NW 22 26 12 14 1022.4 - 0.0
19/02:00pm 13.0 7.9 3.3 51 4.3 NW 19 20 10 11 1022.4 - 0.0
19/01:30pm 13.1 8.9 3.7 53 4.2 WNW 15 17 8 9 1022.6 - 0.0
19/01:00pm 12.0 9.3 3.6 56 3.7 NNW 7 11 4 6 1023.0 - 0.0
19/12:30pm 11.1 8.2 2.4 55 3.7 W 7 9 4 5 1023.5 - 0.0
19/12:00pm 10.7 7.5 2.8 58 3.4 S 9 11 5 6 1023.9 1023.9 0.0
19/11:30am 10.2 5.1 3.0 61 3.1 S 19 20 10 11 1024.2 - 0.0
19/11:00am 9.6 3.9 2.8 62 2.9 S 22 26 12 14 1024.5 - 0.0
19/10:30am 8.7 2.6 3.0 67 2.4 S 24 26 13 14 1024.5 - 0.0
19/10:00am 7.8 2.1 2.8 70 2.1 S 22 28 12 15 1024.4 - 0.0
19/09:30am 7.4 0.9 2.8 72 1.9 S 26 32 14 17 1024.5 - 0.0
19/09:00am 6.4 -0.1 2.5 76 1.6 S 26 32 14 17 1024.6 1024.6 0.0
19/08:30am 5.8 -0.3 2.6 80 1.3 S 24 30 13 16 1024.5 - 0.0
19/08:00am 5.5 -0.6 2.5 81 1.2 S 24 32 13 17 1024.3 - 0.0
19/07:30am 4.9 -1.3 2.4 84 1.0 SSE 24 30 13 16 1024.1 - 0.0
19/07:00am 4.6 -1.7 1.8 82 1.1 SSE 24 30 13 16 1023.9 - 0.0
19/06:30am 4.2 -1.7 1.6 83 1.0 SSE 22 26 12 14 1023.6 - 0.0
19/06:00am 4.4 -1.0 2.4 87 0.8 SSE 20 26 11 14 1023.6 1023.6 0.0
19/05:30am 4.3 -0.6 2.0 85 0.9 SSE 17 20 9 11 1023.7 - 0.0
19/05:00am 3.7 0.2 1.4 85 0.9 SE 9 13 5 7 1023.5 - 0.0
19/04:30am 4.1 -0.2 1.3 82 1.1 SSE 13 19 7 10 1023.4 - 0.0
19/04:00am 4.6 0.0 1.3 79 1.3 SSE 15 19 8 10 1023.3 - 0.0
19/03:30am 4.7 -0.8 1.6 80 1.2 SSE 20 24 11 13 1023.3 - 0.0
19/03:00am 4.9 -0.5 2.7 86 0.9 S 20 24 11 13 1023.6 1023.6 0.0
19/02:30am 5.6 0.3 2.9 83 1.1 S 20 28 11 15 1023.5 - 0.0
19/02:00am 5.8 0.4 2.6 80 1.3 SSE 20 26 11 14 1023.6 - 0.0
19/01:30am 5.6 -0.1 2.9 83 1.1 SSE 22 26 12 14 1023.7 - 0.0
19/01:00am 5.8 0.6 2.6 80 1.3 SSE 19 20 10 11 1023.7 - 0.0
19/12:30am 5.8 1.2 3.9 88 0.8 SSE 17 22 9 12 1023.7 - 0.0
19/12:00am 6.1 1.2 4.2 88 0.8 SSE 19 20 10 11 1023.7 1023.7 0.0

Other Formats:

Comma delimited format used in spreadsheet applications
http://www.bom.gov.au/fwo/IDT60801/IDT60801.95964.axf

JavaScript Object Notation format (JSON) in row-major order
http://www.bom.gov.au/fwo/IDT60801/IDT60801.95964.json